<?xml version="1.0" encoding="UTF-8" standalone="no" ?>
<gpx xmlns="http://www.topografix.com/GPX/1/1" xmlns:xsi="http://www.w3.org/2001/XMLSchema-instance" xsi:schemaLocation="http://www.topografix.com/GPX/1/1 http://www.topografix.com/GPX/1/1/gpx.xsd" version="1.1" creator="VisuGPX - https://www.visugpx.com">
  <metadata>
    <name>83 - L - les Mayons</name>
    <desc><![CDATA[83 - L - les Mayons - Decauville - Castel d' Aou - Suy]]></desc>
  </metadata>
  <trk>
    <name><![CDATA[les-mayons-le decauville 3 gues Lundi 02032026]]></name>
    <trkseg>
      <trkpt lat="43.31964" lon="6.36932">
        <ele>125</ele>
        <time>2026-02-27T09:26:32Z</time>
      </trkpt>
      <trkpt lat="43.31953" lon="6.36976">
        <ele>126</ele>
        <time>2026-02-27T09:27:21Z</time>
      </trkpt>
      <trkpt lat="43.31934" lon="6.37108">
        <ele>125</ele>
        <time>2026-02-27T09:29:13Z</time>
      </trkpt>
      <trkpt lat="43.3193" lon="6.37123">
        <ele>125</ele>
        <time>2026-02-27T09:29:26Z</time>
      </trkpt>
      <trkpt lat="43.3193" lon="6.3713">
        <ele>125</ele>
        <time>2026-02-27T09:29:32Z</time>
      </trkpt>
      <trkpt lat="43.3193" lon="6.37123">
        <ele>125</ele>
        <time>2026-02-27T09:29:38Z</time>
      </trkpt>
      <trkpt lat="43.31927" lon="6.37133">
        <ele>126</ele>
        <time>2026-02-27T09:29:57Z</time>
      </trkpt>
      <trkpt lat="43.31913" lon="6.37163">
        <ele>126</ele>
        <time>2026-02-27T09:30:26Z</time>
      </trkpt>
      <trkpt lat="43.31867" lon="6.37178">
        <ele>129</ele>
        <time>2026-02-27T09:31:51Z</time>
      </trkpt>
      <trkpt lat="43.31854" lon="6.37177">
        <ele>128</ele>
        <time>2026-02-27T09:32:06Z</time>
      </trkpt>
      <trkpt lat="43.31809" lon="6.37159">
        <ele>131</ele>
        <time>2026-02-27T09:33:30Z</time>
      </trkpt>
      <trkpt lat="43.31804" lon="6.37161">
        <ele>130</ele>
        <time>2026-02-27T09:33:37Z</time>
      </trkpt>
      <trkpt lat="43.31768" lon="6.37217">
        <ele>132</ele>
        <time>2026-02-27T09:34:59Z</time>
      </trkpt>
      <trkpt lat="43.31761" lon="6.3722">
        <ele>133</ele>
        <time>2026-02-27T09:35:18Z</time>
      </trkpt>
      <trkpt lat="43.31751" lon="6.3723">
        <ele>133</ele>
        <time>2026-02-27T09:35:32Z</time>
      </trkpt>
      <trkpt lat="43.31727" lon="6.37224">
        <ele>136</ele>
        <time>2026-02-27T09:36:32Z</time>
      </trkpt>
      <trkpt lat="43.31709" lon="6.37228">
        <ele>139</ele>
        <time>2026-02-27T09:37:24Z</time>
      </trkpt>
      <trkpt lat="43.317" lon="6.37222">
        <ele>140</ele>
        <time>2026-02-27T09:37:45Z</time>
      </trkpt>
      <trkpt lat="43.31696" lon="6.37213">
        <ele>141</ele>
        <time>2026-02-27T09:38:04Z</time>
      </trkpt>
      <trkpt lat="43.31687" lon="6.37229">
        <ele>141</ele>
        <time>2026-02-27T09:38:21Z</time>
      </trkpt>
      <trkpt lat="43.31636" lon="6.37241">
        <ele>147</ele>
        <time>2026-02-27T09:40:21Z</time>
      </trkpt>
      <trkpt lat="43.31616" lon="6.37241">
        <ele>149</ele>
        <time>2026-02-27T09:41:05Z</time>
      </trkpt>
      <trkpt lat="43.31607" lon="6.3726">
        <ele>149</ele>
        <time>2026-02-27T09:41:23Z</time>
      </trkpt>
      <trkpt lat="43.31595" lon="6.37285">
        <ele>150</ele>
        <time>2026-02-27T09:41:58Z</time>
      </trkpt>
      <trkpt lat="43.31587" lon="6.37305">
        <ele>151</ele>
        <time>2026-02-27T09:42:27Z</time>
      </trkpt>
      <trkpt lat="43.31585" lon="6.3733">
        <ele>149</ele>
        <time>2026-02-27T09:42:48Z</time>
      </trkpt>
      <trkpt lat="43.31592" lon="6.37344">
        <ele>148</ele>
        <time>2026-02-27T09:43:02Z</time>
      </trkpt>
      <trkpt lat="43.31597" lon="6.37346">
        <ele>148</ele>
        <time>2026-02-27T09:43:08Z</time>
      </trkpt>
      <trkpt lat="43.31597" lon="6.37353">
        <ele>148</ele>
        <time>2026-02-27T09:43:14Z</time>
      </trkpt>
      <trkpt lat="43.3159" lon="6.37361">
        <ele>147</ele>
        <time>2026-02-27T09:43:25Z</time>
      </trkpt>
      <trkpt lat="43.31585" lon="6.37374">
        <ele>145</ele>
        <time>2026-02-27T09:43:36Z</time>
      </trkpt>
      <trkpt lat="43.31598" lon="6.37417">
        <ele>143</ele>
        <time>2026-02-27T09:44:15Z</time>
      </trkpt>
      <trkpt lat="43.31593" lon="6.37474">
        <ele>142</ele>
        <time>2026-02-27T09:45:03Z</time>
      </trkpt>
      <trkpt lat="43.31612" lon="6.37524">
        <ele>139</ele>
        <time>2026-02-27T09:45:50Z</time>
      </trkpt>
      <trkpt lat="43.31616" lon="6.37555">
        <ele>137</ele>
        <time>2026-02-27T09:46:16Z</time>
      </trkpt>
      <trkpt lat="43.31595" lon="6.37593">
        <ele>137</ele>
        <time>2026-02-27T09:46:56Z</time>
      </trkpt>
      <trkpt lat="43.31589" lon="6.37621">
        <ele>134</ele>
        <time>2026-02-27T09:47:20Z</time>
      </trkpt>
      <trkpt lat="43.31538" lon="6.37685">
        <ele>130</ele>
        <time>2026-02-27T09:48:39Z</time>
      </trkpt>
      <trkpt lat="43.31519" lon="6.37724">
        <ele>137</ele>
        <time>2026-02-27T09:50:31Z</time>
      </trkpt>
      <trkpt lat="43.31507" lon="6.37728">
        <ele>137</ele>
        <time>2026-02-27T09:50:44Z</time>
      </trkpt>
      <trkpt lat="43.31494" lon="6.37717">
        <ele>138</ele>
        <time>2026-02-27T09:51:12Z</time>
      </trkpt>
      <trkpt lat="43.31432" lon="6.37699">
        <ele>145</ele>
        <time>2026-02-27T09:53:36Z</time>
      </trkpt>
      <trkpt lat="43.31432" lon="6.37699">
        <ele>145</ele>
        <time>2026-02-27T09:53:36Z</time>
      </trkpt>
      <trkpt lat="43.31419" lon="6.37691">
        <ele>147</ele>
        <time>2026-02-27T09:54:14Z</time>
      </trkpt>
      <trkpt lat="43.31402" lon="6.37686">
        <ele>149</ele>
        <time>2026-02-27T09:54:54Z</time>
      </trkpt>
      <trkpt lat="43.31381" lon="6.37691">
        <ele>149</ele>
        <time>2026-02-27T09:55:18Z</time>
      </trkpt>
      <trkpt lat="43.31399" lon="6.37723">
        <ele>155</ele>
        <time>2026-02-27T09:56:53Z</time>
      </trkpt>
      <trkpt lat="43.31402" lon="6.37736">
        <ele>156</ele>
        <time>2026-02-27T09:57:15Z</time>
      </trkpt>
      <trkpt lat="43.3142" lon="6.3788">
        <ele>177</ele>
        <time>2026-02-27T10:02:52Z</time>
      </trkpt>
      <trkpt lat="43.3142" lon="6.3788">
        <ele>177</ele>
        <time>2026-02-27T10:02:52Z</time>
      </trkpt>
      <trkpt lat="43.3142" lon="6.3788">
        <ele>177</ele>
        <time>2026-02-27T10:02:52Z</time>
      </trkpt>
      <trkpt lat="43.3142" lon="6.3788">
        <ele>177</ele>
        <time>2026-02-27T10:02:52Z</time>
      </trkpt>
      <trkpt lat="43.314" lon="6.37897">
        <ele>178</ele>
        <time>2026-02-27T10:03:30Z</time>
      </trkpt>
      <trkpt lat="43.31395" lon="6.37902">
        <ele>180</ele>
        <time>2026-02-27T10:03:58Z</time>
      </trkpt>
      <trkpt lat="43.31397" lon="6.37903">
        <ele>181</ele>
        <time>2026-01-30T09:33:05Z</time>
      </trkpt>
      <trkpt lat="43.31395" lon="6.37902">
        <ele>180</ele>
        <time>2026-01-30T09:33:07Z</time>
      </trkpt>
      <trkpt lat="43.31391" lon="6.37913">
        <ele>180</ele>
        <time>2026-01-30T09:33:17Z</time>
      </trkpt>
      <trkpt lat="43.31383" lon="6.37958">
        <ele>178</ele>
        <time>2026-01-30T09:33:55Z</time>
      </trkpt>
      <trkpt lat="43.31377" lon="6.37975">
        <ele>178</ele>
        <time>2026-01-30T09:34:11Z</time>
      </trkpt>
      <trkpt lat="43.31368" lon="6.38018">
        <ele>181</ele>
        <time>2026-01-30T09:35:20Z</time>
      </trkpt>
      <trkpt lat="43.31358" lon="6.38029">
        <ele>178</ele>
        <time>2026-01-30T09:35:34Z</time>
      </trkpt>
      <trkpt lat="43.31329" lon="6.38026">
        <ele>178</ele>
        <time>2026-01-30T09:36:08Z</time>
      </trkpt>
      <trkpt lat="43.31318" lon="6.3803">
        <ele>178</ele>
        <time>2026-01-30T09:36:21Z</time>
      </trkpt>
      <trkpt lat="43.31289" lon="6.38065">
        <ele>177</ele>
        <time>2026-01-30T09:37:05Z</time>
      </trkpt>
      <trkpt lat="43.31277" lon="6.38092">
        <ele>179</ele>
        <time>2026-01-30T09:37:52Z</time>
      </trkpt>
      <trkpt lat="43.31271" lon="6.38143">
        <ele>178</ele>
        <time>2026-01-30T09:38:35Z</time>
      </trkpt>
      <trkpt lat="43.3126" lon="6.38158">
        <ele>179</ele>
        <time>2026-01-30T09:39:03Z</time>
      </trkpt>
      <trkpt lat="43.31256" lon="6.38172">
        <ele>180</ele>
        <time>2026-01-30T09:39:26Z</time>
      </trkpt>
      <trkpt lat="43.31251" lon="6.38216">
        <ele>179</ele>
        <time>2026-01-30T09:40:03Z</time>
      </trkpt>
      <trkpt lat="43.31248" lon="6.38218">
        <ele>179</ele>
        <time>2026-01-30T09:40:07Z</time>
      </trkpt>
      <trkpt lat="43.31236" lon="6.38212">
        <ele>179</ele>
        <time>2026-01-30T09:40:21Z</time>
      </trkpt>
      <trkpt lat="43.31236" lon="6.38212">
        <ele>179</ele>
        <time>2026-01-30T09:40:21Z</time>
      </trkpt>
      <trkpt lat="43.31236" lon="6.38211">
        <ele>179</ele>
        <time>2026-01-30T09:40:21Z</time>
      </trkpt>
      <trkpt lat="43.31226" lon="6.38203">
        <ele>179</ele>
        <time>2026-01-30T09:40:34Z</time>
      </trkpt>
      <trkpt lat="43.31207" lon="6.38163">
        <ele>178</ele>
        <time>2026-01-30T09:41:14Z</time>
      </trkpt>
      <trkpt lat="43.312" lon="6.38157">
        <ele>178</ele>
        <time>2026-01-30T09:41:23Z</time>
      </trkpt>
      <trkpt lat="43.31189" lon="6.38156">
        <ele>178</ele>
        <time>2026-01-30T09:41:36Z</time>
      </trkpt>
      <trkpt lat="43.31178" lon="6.38162">
        <ele>179</ele>
        <time>2026-01-30T09:41:59Z</time>
      </trkpt>
      <trkpt lat="43.31159" lon="6.38185">
        <ele>178</ele>
        <time>2026-01-30T09:42:28Z</time>
      </trkpt>
      <trkpt lat="43.31147" lon="6.38186">
        <ele>177</ele>
        <time>2026-01-30T09:42:41Z</time>
      </trkpt>
      <trkpt lat="43.3114" lon="6.38181">
        <ele>177</ele>
        <time>2026-01-30T09:42:51Z</time>
      </trkpt>
      <trkpt lat="43.31127" lon="6.38154">
        <ele>176</ele>
        <time>2026-01-30T09:43:18Z</time>
      </trkpt>
      <trkpt lat="43.31117" lon="6.38146">
        <ele>177</ele>
        <time>2026-01-30T09:43:42Z</time>
      </trkpt>
      <trkpt lat="43.31102" lon="6.38139">
        <ele>177</ele>
        <time>2026-01-30T09:44:00Z</time>
      </trkpt>
      <trkpt lat="43.31051" lon="6.38135">
        <ele>177</ele>
        <time>2026-01-30T09:44:59Z</time>
      </trkpt>
      <trkpt lat="43.31051" lon="6.38135">
        <ele>178</ele>
        <time>2026-01-30T09:43:32Z</time>
      </trkpt>
      <trkpt lat="43.3103" lon="6.38145">
        <ele>177</ele>
        <time>2026-01-30T09:43:55Z</time>
      </trkpt>
      <trkpt lat="43.31015" lon="6.38167">
        <ele>177</ele>
        <time>2026-01-30T09:44:18Z</time>
      </trkpt>
      <trkpt lat="43.31006" lon="6.38196">
        <ele>178</ele>
        <time>2026-01-30T09:44:40Z</time>
      </trkpt>
      <trkpt lat="43.30992" lon="6.38221">
        <ele>177</ele>
        <time>2026-01-30T09:45:08Z</time>
      </trkpt>
      <trkpt lat="43.30971" lon="6.38234">
        <ele>177</ele>
        <time>2026-01-30T09:45:32Z</time>
      </trkpt>
      <trkpt lat="43.30949" lon="6.38235">
        <ele>177</ele>
        <time>2026-01-30T09:45:55Z</time>
      </trkpt>
      <trkpt lat="43.30927" lon="6.38234">
        <ele>177</ele>
        <time>2026-01-30T09:46:24Z</time>
      </trkpt>
      <trkpt lat="43.30905" lon="6.38228">
        <ele>178</ele>
        <time>2026-01-30T09:46:46Z</time>
      </trkpt>
      <trkpt lat="43.30883" lon="6.3823">
        <ele>179</ele>
        <time>2026-01-30T09:47:18Z</time>
      </trkpt>
      <trkpt lat="43.30861" lon="6.38232">
        <ele>180</ele>
        <time>2026-01-30T09:47:43Z</time>
      </trkpt>
      <trkpt lat="43.3084" lon="6.3824">
        <ele>181</ele>
        <time>2026-01-30T09:48:04Z</time>
      </trkpt>
      <trkpt lat="43.30817" lon="6.38241">
        <ele>181</ele>
        <time>2026-01-30T09:48:28Z</time>
      </trkpt>
      <trkpt lat="43.30795" lon="6.3824">
        <ele>181</ele>
        <time>2026-01-30T09:48:52Z</time>
      </trkpt>
      <trkpt lat="43.30795" lon="6.3824">
        <ele>174</ele>
        <time>2026-01-30T09:48:52Z</time>
      </trkpt>
      <trkpt lat="43.30791" lon="6.38239">
        <ele>173</ele>
        <time>2026-01-30T09:48:57Z</time>
      </trkpt>
      <trkpt lat="43.30755" lon="6.38228">
        <ele>175</ele>
        <time>2026-01-30T09:50:00Z</time>
      </trkpt>
      <trkpt lat="43.30744" lon="6.38219">
        <ele>174</ele>
        <time>2026-01-30T09:50:15Z</time>
      </trkpt>
      <trkpt lat="43.30734" lon="6.38201">
        <ele>175</ele>
        <time>2026-01-30T09:50:44Z</time>
      </trkpt>
      <trkpt lat="43.30734" lon="6.38201">
        <ele>175</ele>
        <time>2026-01-30T09:50:44Z</time>
      </trkpt>
      <trkpt lat="43.30755" lon="6.38195">
        <ele>175</ele>
        <time>2026-01-30T09:51:08Z</time>
      </trkpt>
      <trkpt lat="43.3078" lon="6.38187">
        <ele>178</ele>
        <time>2026-01-30T09:52:09Z</time>
      </trkpt>
      <trkpt lat="43.30836" lon="6.3815">
        <ele>179</ele>
        <time>2026-01-30T09:53:31Z</time>
      </trkpt>
      <trkpt lat="43.30925" lon="6.38125">
        <ele>187</ele>
        <time>2026-01-30T09:56:37Z</time>
      </trkpt>
      <trkpt lat="43.30925" lon="6.38125">
        <ele>187</ele>
        <time>2026-01-30T09:56:37Z</time>
      </trkpt>
      <trkpt lat="43.30936" lon="6.38122">
        <ele>186</ele>
        <time>2026-01-30T09:56:50Z</time>
      </trkpt>
      <trkpt lat="43.30948" lon="6.38112">
        <ele>184</ele>
        <time>2026-01-30T09:57:06Z</time>
      </trkpt>
      <trkpt lat="43.3099" lon="6.38046">
        <ele>182</ele>
        <time>2026-01-30T09:58:19Z</time>
      </trkpt>
      <trkpt lat="43.31014" lon="6.38022">
        <ele>184</ele>
        <time>2026-01-30T09:59:13Z</time>
      </trkpt>
      <trkpt lat="43.31047" lon="6.37993">
        <ele>186</ele>
        <time>2026-01-30T10:00:18Z</time>
      </trkpt>
      <trkpt lat="43.31069" lon="6.37979">
        <ele>192</ele>
        <time>2026-01-30T10:01:48Z</time>
      </trkpt>
      <trkpt lat="43.31099" lon="6.3797">
        <ele>191</ele>
        <time>2026-01-30T10:02:24Z</time>
      </trkpt>
      <trkpt lat="43.31122" lon="6.37955">
        <ele>193</ele>
        <time>2026-01-30T10:03:14Z</time>
      </trkpt>
      <trkpt lat="43.31122" lon="6.37955">
        <ele>193</ele>
        <time>2026-01-30T10:03:14Z</time>
      </trkpt>
      <trkpt lat="43.31139" lon="6.37942">
        <ele>192</ele>
        <time>2026-01-30T10:03:36Z</time>
      </trkpt>
      <trkpt lat="43.31149" lon="6.37928">
        <ele>189</ele>
        <time>2026-01-30T10:03:52Z</time>
      </trkpt>
      <trkpt lat="43.31164" lon="6.3789">
        <ele>197</ele>
        <time>2026-01-30T10:05:50Z</time>
      </trkpt>
      <trkpt lat="43.31188" lon="6.37859">
        <ele>196</ele>
        <time>2026-01-30T10:06:28Z</time>
      </trkpt>
      <trkpt lat="43.312" lon="6.37833">
        <ele>198</ele>
        <time>2026-01-30T10:07:14Z</time>
      </trkpt>
      <trkpt lat="43.312" lon="6.37833">
        <ele>198</ele>
        <time>2026-01-30T10:07:14Z</time>
      </trkpt>
      <trkpt lat="43.31202" lon="6.37829">
        <ele>198</ele>
        <time>2026-01-30T10:07:18Z</time>
      </trkpt>
      <trkpt lat="43.31206" lon="6.37799">
        <ele>198</ele>
        <time>2026-01-30T10:07:44Z</time>
      </trkpt>
      <trkpt lat="43.31205" lon="6.37751">
        <ele>198</ele>
        <time>2026-01-30T10:08:24Z</time>
      </trkpt>
      <trkpt lat="43.31198" lon="6.37728">
        <ele>200</ele>
        <time>2026-01-30T10:09:05Z</time>
      </trkpt>
      <trkpt lat="43.31191" lon="6.37724">
        <ele>200</ele>
        <time>2026-01-30T10:09:14Z</time>
      </trkpt>
      <trkpt lat="43.3119" lon="6.37724">
        <ele>200</ele>
        <time>2026-01-30T10:11:32Z</time>
      </trkpt>
      <trkpt lat="43.31191" lon="6.37724">
        <ele>200</ele>
        <time>2026-01-30T10:11:32Z</time>
      </trkpt>
      <trkpt lat="43.31183" lon="6.37719">
        <ele>198</ele>
        <time>2026-01-30T10:11:42Z</time>
      </trkpt>
      <trkpt lat="43.31173" lon="6.37719">
        <ele>198</ele>
        <time>2026-01-30T10:11:53Z</time>
      </trkpt>
      <trkpt lat="43.31112" lon="6.37693">
        <ele>202</ele>
        <time>2026-01-30T10:13:48Z</time>
      </trkpt>
      <trkpt lat="43.3106" lon="6.37662">
        <ele>206</ele>
        <time>2026-01-30T10:15:34Z</time>
      </trkpt>
      <trkpt lat="43.3106" lon="6.37662">
        <ele>206</ele>
        <time>2026-01-30T10:15:34Z</time>
      </trkpt>
      <trkpt lat="43.31039" lon="6.37661">
        <ele>207</ele>
        <time>2026-01-30T10:16:09Z</time>
      </trkpt>
      <trkpt lat="43.31015" lon="6.37652">
        <ele>210</ele>
        <time>2026-01-30T10:17:08Z</time>
      </trkpt>
      <trkpt lat="43.31008" lon="6.37639">
        <ele>212</ele>
        <time>2026-01-30T10:17:42Z</time>
      </trkpt>
      <trkpt lat="43.31004" lon="6.37614">
        <ele>212</ele>
        <time>2026-01-30T10:18:04Z</time>
      </trkpt>
      <trkpt lat="43.30996" lon="6.37598">
        <ele>214</ele>
        <time>2026-01-30T10:18:40Z</time>
      </trkpt>
      <trkpt lat="43.3096" lon="6.37548">
        <ele>216</ele>
        <time>2026-01-30T10:20:00Z</time>
      </trkpt>
      <trkpt lat="43.30924" lon="6.37544">
        <ele>219</ele>
        <time>2026-01-30T10:21:12Z</time>
      </trkpt>
      <trkpt lat="43.30924" lon="6.37549">
        <ele>218</ele>
        <time>2026-01-30T10:18:41Z</time>
      </trkpt>
      <trkpt lat="43.30903" lon="6.37555">
        <ele>221</ele>
        <time>2026-01-30T10:19:13Z</time>
      </trkpt>
      <trkpt lat="43.30889" lon="6.37577">
        <ele>223</ele>
        <time>2026-01-30T10:19:43Z</time>
      </trkpt>
      <trkpt lat="43.30877" lon="6.37604">
        <ele>225</ele>
        <time>2026-01-30T10:20:20Z</time>
      </trkpt>
      <trkpt lat="43.30863" lon="6.37628">
        <ele>226</ele>
        <time>2026-01-30T10:20:57Z</time>
      </trkpt>
      <trkpt lat="43.30847" lon="6.37651">
        <ele>227</ele>
        <time>2026-01-30T10:21:39Z</time>
      </trkpt>
      <trkpt lat="43.30835" lon="6.37677">
        <ele>228</ele>
        <time>2026-01-30T10:22:50Z</time>
      </trkpt>
      <trkpt lat="43.30826" lon="6.37707">
        <ele>229</ele>
        <time>2026-01-30T10:23:24Z</time>
      </trkpt>
      <trkpt lat="43.30815" lon="6.37732">
        <ele>230</ele>
        <time>2026-01-30T10:23:57Z</time>
      </trkpt>
      <trkpt lat="43.30794" lon="6.3774">
        <ele>232</ele>
        <time>2026-01-30T10:24:32Z</time>
      </trkpt>
      <trkpt lat="43.30771" lon="6.37743">
        <ele>234</ele>
        <time>2026-01-30T10:25:12Z</time>
      </trkpt>
      <trkpt lat="43.30748" lon="6.3775">
        <ele>235</ele>
        <time>2026-01-30T10:25:48Z</time>
      </trkpt>
      <trkpt lat="43.30727" lon="6.37761">
        <ele>236</ele>
        <time>2026-01-30T10:26:25Z</time>
      </trkpt>
      <trkpt lat="43.30705" lon="6.37771">
        <ele>237</ele>
        <time>2026-01-30T10:27:01Z</time>
      </trkpt>
      <trkpt lat="43.30684" lon="6.37784">
        <ele>237</ele>
        <time>2026-01-30T10:27:31Z</time>
      </trkpt>
      <trkpt lat="43.30664" lon="6.37798">
        <ele>238</ele>
        <time>2026-01-30T10:28:04Z</time>
      </trkpt>
      <trkpt lat="43.30645" lon="6.37815">
        <ele>240</ele>
        <time>2026-01-30T10:28:45Z</time>
      </trkpt>
      <trkpt lat="43.30625" lon="6.37829">
        <ele>242</ele>
        <time>2026-01-30T10:29:16Z</time>
      </trkpt>
      <trkpt lat="43.30602" lon="6.37833">
        <ele>244</ele>
        <time>2026-01-30T10:30:03Z</time>
      </trkpt>
      <trkpt lat="43.30579" lon="6.37836">
        <ele>247</ele>
        <time>2026-01-30T10:30:32Z</time>
      </trkpt>
      <trkpt lat="43.30556" lon="6.37834">
        <ele>250</ele>
        <time>2026-01-30T10:31:11Z</time>
      </trkpt>
      <trkpt lat="43.30534" lon="6.37836">
        <ele>251</ele>
        <time>2026-01-30T10:31:44Z</time>
      </trkpt>
      <trkpt lat="43.30512" lon="6.37844">
        <ele>253</ele>
        <time>2026-01-30T10:32:01Z</time>
      </trkpt>
      <trkpt lat="43.3049" lon="6.37854">
        <ele>254</ele>
        <time>2026-01-30T10:33:01Z</time>
      </trkpt>
      <trkpt lat="43.3047" lon="6.37868">
        <ele>255</ele>
        <time>2026-01-30T10:33:26Z</time>
      </trkpt>
      <trkpt lat="43.30448" lon="6.3788">
        <ele>256</ele>
        <time>2026-01-30T10:33:59Z</time>
      </trkpt>
      <trkpt lat="43.30427" lon="6.37889">
        <ele>257</ele>
        <time>2026-01-30T10:34:29Z</time>
      </trkpt>
      <trkpt lat="43.30405" lon="6.37886">
        <ele>258</ele>
        <time>2026-01-30T10:35:04Z</time>
      </trkpt>
      <trkpt lat="43.30384" lon="6.37879">
        <ele>259</ele>
        <time>2026-01-30T10:35:36Z</time>
      </trkpt>
      <trkpt lat="43.30369" lon="6.37855">
        <ele>260</ele>
        <time>2026-01-30T10:36:09Z</time>
      </trkpt>
      <trkpt lat="43.30357" lon="6.3783">
        <ele>261</ele>
        <time>2026-01-30T10:36:47Z</time>
      </trkpt>
      <trkpt lat="43.30343" lon="6.37806">
        <ele>262</ele>
        <time>2026-01-30T10:37:55Z</time>
      </trkpt>
      <trkpt lat="43.30323" lon="6.37793">
        <ele>263</ele>
        <time>2026-01-30T10:38:28Z</time>
      </trkpt>
      <trkpt lat="43.30302" lon="6.37784">
        <ele>263</ele>
        <time>2026-01-30T10:38:54Z</time>
      </trkpt>
      <trkpt lat="43.30282" lon="6.37774">
        <ele>264</ele>
        <time>2026-01-30T10:39:28Z</time>
      </trkpt>
      <trkpt lat="43.3027" lon="6.37748">
        <ele>265</ele>
        <time>2026-01-30T10:39:54Z</time>
      </trkpt>
      <trkpt lat="43.30257" lon="6.37722">
        <ele>266</ele>
        <time>2026-01-30T10:40:22Z</time>
      </trkpt>
      <trkpt lat="43.30242" lon="6.37699">
        <ele>268</ele>
        <time>2026-01-30T10:40:54Z</time>
      </trkpt>
      <trkpt lat="43.30222" lon="6.37696">
        <ele>270</ele>
        <time>2026-01-30T10:41:29Z</time>
      </trkpt>
      <trkpt lat="43.30209" lon="6.37719">
        <ele>271</ele>
        <time>2026-01-30T10:42:09Z</time>
      </trkpt>
      <trkpt lat="43.30196" lon="6.37744">
        <ele>275</ele>
        <time>2026-01-30T10:42:42Z</time>
      </trkpt>
      <trkpt lat="43.30178" lon="6.37762">
        <ele>276</ele>
        <time>2026-01-30T10:46:39Z</time>
      </trkpt>
      <trkpt lat="43.30167" lon="6.37788">
        <ele>277</ele>
        <time>2026-01-30T10:47:33Z</time>
      </trkpt>
      <trkpt lat="43.30158" lon="6.37813">
        <ele>278</ele>
        <time>2026-01-30T10:48:27Z</time>
      </trkpt>
      <trkpt lat="43.30139" lon="6.37808">
        <ele>278</ele>
        <time>2026-01-30T10:49:06Z</time>
      </trkpt>
      <trkpt lat="43.3012" lon="6.37817">
        <ele>279</ele>
        <time>2026-01-30T10:49:38Z</time>
      </trkpt>
      <trkpt lat="43.30102" lon="6.37835">
        <ele>280</ele>
        <time>2026-01-30T10:50:05Z</time>
      </trkpt>
      <trkpt lat="43.30081" lon="6.37844">
        <ele>281</ele>
        <time>2026-01-30T10:50:58Z</time>
      </trkpt>
      <trkpt lat="43.30061" lon="6.37856">
        <ele>282</ele>
        <time>2026-01-30T10:51:35Z</time>
      </trkpt>
      <trkpt lat="43.30039" lon="6.37868">
        <ele>284</ele>
        <time>2026-01-30T10:52:04Z</time>
      </trkpt>
      <trkpt lat="43.30019" lon="6.37874">
        <ele>286</ele>
        <time>2026-01-30T10:52:40Z</time>
      </trkpt>
      <trkpt lat="43.30005" lon="6.37852">
        <ele>290</ele>
        <time>2026-01-30T10:53:46Z</time>
      </trkpt>
      <trkpt lat="43.30016" lon="6.37818">
        <ele>290</ele>
        <time>2026-01-30T10:54:17Z</time>
      </trkpt>
      <trkpt lat="43.29999" lon="6.37779">
        <ele>288</ele>
        <time>2026-01-30T10:54:55Z</time>
      </trkpt>
      <trkpt lat="43.29996" lon="6.37701">
        <ele>300</ele>
        <time>2026-01-30T10:58:04Z</time>
      </trkpt>
      <trkpt lat="43.30038" lon="6.37692">
        <ele>303</ele>
        <time>2026-01-30T10:59:23Z</time>
      </trkpt>
      <trkpt lat="43.30038" lon="6.37693">
        <ele>302</ele>
        <time>2026-01-30T10:59:24Z</time>
      </trkpt>
      <trkpt lat="43.30043" lon="6.37688">
        <ele>301</ele>
        <time>2026-01-30T10:59:31Z</time>
      </trkpt>
      <trkpt lat="43.30048" lon="6.37667">
        <ele>301</ele>
        <time>2026-01-30T10:59:49Z</time>
      </trkpt>
      <trkpt lat="43.3005" lon="6.37628">
        <ele>302</ele>
        <time>2026-01-30T11:00:32Z</time>
      </trkpt>
      <trkpt lat="43.30048" lon="6.376">
        <ele>302</ele>
        <time>2026-01-30T11:00:56Z</time>
      </trkpt>
      <trkpt lat="43.30046" lon="6.37581">
        <ele>303</ele>
        <time>2026-01-30T11:01:22Z</time>
      </trkpt>
      <trkpt lat="43.30023" lon="6.37441">
        <ele>313</ele>
        <time>2026-01-30T11:05:04Z</time>
      </trkpt>
      <trkpt lat="43.29978" lon="6.37419">
        <ele>316</ele>
        <time>2026-01-30T11:06:29Z</time>
      </trkpt>
      <trkpt lat="43.29836" lon="6.3733">
        <ele>329</ele>
        <time>2026-01-30T11:11:42Z</time>
      </trkpt>
      <trkpt lat="43.29833" lon="6.37321">
        <ele>327</ele>
        <time>2026-01-30T11:11:50Z</time>
      </trkpt>
      <trkpt lat="43.29833" lon="6.37321">
        <ele>327</ele>
        <time>2026-01-30T11:11:50Z</time>
      </trkpt>
      <trkpt lat="43.29836" lon="6.3733">
        <ele>329</ele>
        <time>2026-01-30T11:12:19Z</time>
      </trkpt>
      <trkpt lat="43.29978" lon="6.37419">
        <ele>316</ele>
        <time>2026-01-30T11:15:18Z</time>
      </trkpt>
      <trkpt lat="43.30023" lon="6.37441">
        <ele>313</ele>
        <time>2026-01-30T11:16:12Z</time>
      </trkpt>
      <trkpt lat="43.30048" lon="6.376">
        <ele>302</ele>
        <time>2026-01-30T11:18:27Z</time>
      </trkpt>
      <trkpt lat="43.30048" lon="6.376">
        <ele>302</ele>
        <time>2026-01-30T11:18:27Z</time>
      </trkpt>
      <trkpt lat="43.3005" lon="6.37628">
        <ele>302</ele>
        <time>2026-01-30T11:18:51Z</time>
      </trkpt>
      <trkpt lat="43.30048" lon="6.37667">
        <ele>301</ele>
        <time>2026-01-30T11:19:24Z</time>
      </trkpt>
      <trkpt lat="43.30043" lon="6.37688">
        <ele>301</ele>
        <time>2026-01-30T11:19:42Z</time>
      </trkpt>
      <trkpt lat="43.30037" lon="6.37693">
        <ele>302</ele>
        <time>2026-01-30T11:20:01Z</time>
      </trkpt>
      <trkpt lat="43.30001" lon="6.37703">
        <ele>300</ele>
        <time>2026-01-30T11:20:43Z</time>
      </trkpt>
      <trkpt lat="43.29989" lon="6.37723">
        <ele>290</ele>
        <time>2026-01-30T11:21:04Z</time>
      </trkpt>
      <trkpt lat="43.29996" lon="6.37762">
        <ele>286</ele>
        <time>2026-01-30T11:21:37Z</time>
      </trkpt>
      <trkpt lat="43.30014" lon="6.37815">
        <ele>290</ele>
        <time>2026-01-30T11:23:07Z</time>
      </trkpt>
      <trkpt lat="43.30008" lon="6.37856">
        <ele>287</ele>
        <time>2026-01-30T11:23:42Z</time>
      </trkpt>
      <trkpt lat="43.30031" lon="6.37864">
        <ele>289</ele>
        <time>2026-01-30T11:08:28Z</time>
      </trkpt>
      <trkpt lat="43.30053" lon="6.37858">
        <ele>289</ele>
        <time>2026-01-30T11:08:59Z</time>
      </trkpt>
      <trkpt lat="43.30074" lon="6.37847">
        <ele>288</ele>
        <time>2026-01-30T11:09:26Z</time>
      </trkpt>
      <trkpt lat="43.30093" lon="6.3783">
        <ele>287</ele>
        <time>2026-01-30T11:10:11Z</time>
      </trkpt>
      <trkpt lat="43.30112" lon="6.37813">
        <ele>285</ele>
        <time>2026-01-30T11:10:39Z</time>
      </trkpt>
      <trkpt lat="43.30134" lon="6.37806">
        <ele>282</ele>
        <time>2026-01-30T11:11:07Z</time>
      </trkpt>
      <trkpt lat="43.30154" lon="6.37808">
        <ele>280</ele>
        <time>2026-01-30T11:11:44Z</time>
      </trkpt>
      <trkpt lat="43.30163" lon="6.37784">
        <ele>277</ele>
        <time>2026-01-30T11:12:42Z</time>
      </trkpt>
      <trkpt lat="43.30178" lon="6.3776">
        <ele>275</ele>
        <time>2026-01-30T11:13:12Z</time>
      </trkpt>
      <trkpt lat="43.30196" lon="6.37745">
        <ele>274</ele>
        <time>2026-01-30T11:13:56Z</time>
      </trkpt>
      <trkpt lat="43.30209" lon="6.3772">
        <ele>273</ele>
        <time>2026-01-30T11:14:30Z</time>
      </trkpt>
      <trkpt lat="43.30216" lon="6.37693">
        <ele>271</ele>
        <time>2026-01-30T11:15:00Z</time>
      </trkpt>
      <trkpt lat="43.30224" lon="6.37685">
        <ele>269</ele>
        <time>2026-01-30T11:16:09Z</time>
      </trkpt>
      <trkpt lat="43.30244" lon="6.37692">
        <ele>268</ele>
        <time>2026-01-30T11:55:58Z</time>
      </trkpt>
      <trkpt lat="43.3026" lon="6.37713">
        <ele>267</ele>
        <time>2026-01-30T11:56:24Z</time>
      </trkpt>
      <trkpt lat="43.30273" lon="6.37739">
        <ele>265</ele>
        <time>2026-01-30T11:56:51Z</time>
      </trkpt>
      <trkpt lat="43.30284" lon="6.37767">
        <ele>263</ele>
        <time>2026-01-30T11:57:18Z</time>
      </trkpt>
      <trkpt lat="43.30303" lon="6.37781">
        <ele>261</ele>
        <time>2026-01-30T11:57:39Z</time>
      </trkpt>
      <trkpt lat="43.30324" lon="6.37791">
        <ele>259</ele>
        <time>2026-01-30T11:58:08Z</time>
      </trkpt>
      <trkpt lat="43.30344" lon="6.37806">
        <ele>257</ele>
        <time>2026-01-30T11:58:33Z</time>
      </trkpt>
      <trkpt lat="43.30361" lon="6.37827">
        <ele>256</ele>
        <time>2026-01-30T11:58:56Z</time>
      </trkpt>
      <trkpt lat="43.30374" lon="6.37853">
        <ele>256</ele>
        <time>2026-01-30T11:59:20Z</time>
      </trkpt>
      <trkpt lat="43.30386" lon="6.37877">
        <ele>254</ele>
        <time>2026-01-30T11:59:41Z</time>
      </trkpt>
      <trkpt lat="43.30408" lon="6.37884">
        <ele>253</ele>
        <time>2026-01-30T12:00:10Z</time>
      </trkpt>
      <trkpt lat="43.3043" lon="6.37884">
        <ele>251</ele>
        <time>2026-01-30T12:00:33Z</time>
      </trkpt>
      <trkpt lat="43.30453" lon="6.37877">
        <ele>250</ele>
        <time>2026-01-30T12:01:04Z</time>
      </trkpt>
      <trkpt lat="43.30474" lon="6.37868">
        <ele>249</ele>
        <time>2026-01-30T12:01:29Z</time>
      </trkpt>
      <trkpt lat="43.30496" lon="6.37855">
        <ele>246</ele>
        <time>2026-01-30T12:01:50Z</time>
      </trkpt>
      <trkpt lat="43.30517" lon="6.37847">
        <ele>245</ele>
        <time>2026-01-30T12:02:23Z</time>
      </trkpt>
      <trkpt lat="43.30538" lon="6.37834">
        <ele>242</ele>
        <time>2026-01-30T12:03:03Z</time>
      </trkpt>
      <trkpt lat="43.3056" lon="6.37822">
        <ele>238</ele>
        <time>2026-01-30T12:03:32Z</time>
      </trkpt>
      <trkpt lat="43.30581" lon="6.37812">
        <ele>234</ele>
        <time>2026-01-30T12:04:07Z</time>
      </trkpt>
      <trkpt lat="43.306" lon="6.37798">
        <ele>231</ele>
        <time>2026-01-30T12:04:38Z</time>
      </trkpt>
      <trkpt lat="43.3062" lon="6.37784">
        <ele>227</ele>
        <time>2026-01-30T12:05:18Z</time>
      </trkpt>
      <trkpt lat="43.30637" lon="6.37763">
        <ele>223</ele>
        <time>2026-01-30T12:05:55Z</time>
      </trkpt>
      <trkpt lat="43.30653" lon="6.37741">
        <ele>219</ele>
        <time>2026-01-30T12:06:23Z</time>
      </trkpt>
      <trkpt lat="43.3067" lon="6.37719">
        <ele>215</ele>
        <time>2026-01-30T12:06:52Z</time>
      </trkpt>
      <trkpt lat="43.30683" lon="6.37694">
        <ele>211</ele>
        <time>2026-01-30T12:07:24Z</time>
      </trkpt>
      <trkpt lat="43.30701" lon="6.37678">
        <ele>207</ele>
        <time>2026-01-30T12:07:46Z</time>
      </trkpt>
      <trkpt lat="43.30717" lon="6.37656">
        <ele>203</ele>
        <time>2026-01-30T12:08:19Z</time>
      </trkpt>
      <trkpt lat="43.30735" lon="6.37638">
        <ele>200</ele>
        <time>2026-01-30T12:08:47Z</time>
      </trkpt>
      <trkpt lat="43.30752" lon="6.37617">
        <ele>197</ele>
        <time>2026-01-30T12:09:22Z</time>
      </trkpt>
      <trkpt lat="43.30772" lon="6.37601">
        <ele>195</ele>
        <time>2026-01-30T12:09:48Z</time>
      </trkpt>
      <trkpt lat="43.3079" lon="6.37581">
        <ele>194</ele>
        <time>2026-01-30T12:10:08Z</time>
      </trkpt>
      <trkpt lat="43.30808" lon="6.37563">
        <ele>193</ele>
        <time>2026-01-30T12:10:37Z</time>
      </trkpt>
      <trkpt lat="43.30824" lon="6.3754">
        <ele>193</ele>
        <time>2026-01-30T12:11:00Z</time>
      </trkpt>
      <trkpt lat="43.30833" lon="6.37512">
        <ele>192</ele>
        <time>2026-01-30T12:11:22Z</time>
      </trkpt>
      <trkpt lat="43.30844" lon="6.37484">
        <ele>192</ele>
        <time>2026-01-30T12:11:46Z</time>
      </trkpt>
      <trkpt lat="43.30856" lon="6.37459">
        <ele>192</ele>
        <time>2026-01-30T12:12:08Z</time>
      </trkpt>
      <trkpt lat="43.30871" lon="6.37435">
        <ele>191</ele>
        <time>2026-01-30T12:12:32Z</time>
      </trkpt>
      <trkpt lat="43.30891" lon="6.37424">
        <ele>191</ele>
        <time>2026-01-30T12:12:57Z</time>
      </trkpt>
      <trkpt lat="43.30891" lon="6.37423">
        <ele>193</ele>
        <time>2026-01-30T12:13:18Z</time>
      </trkpt>
      <trkpt lat="43.309" lon="6.37422">
        <ele>193</ele>
        <time>2026-01-30T12:13:28Z</time>
      </trkpt>
      <trkpt lat="43.30916" lon="6.37426">
        <ele>192</ele>
        <time>2026-01-30T12:13:47Z</time>
      </trkpt>
      <trkpt lat="43.30932" lon="6.37456">
        <ele>191</ele>
        <time>2026-01-30T12:14:18Z</time>
      </trkpt>
      <trkpt lat="43.30973" lon="6.37481">
        <ele>190</ele>
        <time>2026-01-30T12:15:10Z</time>
      </trkpt>
      <trkpt lat="43.30983" lon="6.37497">
        <ele>189</ele>
        <time>2026-01-30T12:15:27Z</time>
      </trkpt>
      <trkpt lat="43.31038" lon="6.37554">
        <ele>185</ele>
        <time>2026-01-30T12:16:46Z</time>
      </trkpt>
      <trkpt lat="43.31047" lon="6.37572">
        <ele>184</ele>
        <time>2026-01-30T12:17:05Z</time>
      </trkpt>
      <trkpt lat="43.31053" lon="6.37598">
        <ele>183</ele>
        <time>2026-01-30T12:17:27Z</time>
      </trkpt>
      <trkpt lat="43.31053" lon="6.37598">
        <ele>183</ele>
        <time>2026-01-30T12:17:27Z</time>
      </trkpt>
      <trkpt lat="43.31054" lon="6.37602">
        <ele>183</ele>
        <time>2026-01-30T12:17:31Z</time>
      </trkpt>
      <trkpt lat="43.31061" lon="6.37606">
        <ele>184</ele>
        <time>2026-01-30T12:17:50Z</time>
      </trkpt>
      <trkpt lat="43.31067" lon="6.37604">
        <ele>183</ele>
        <time>2026-01-30T12:17:57Z</time>
      </trkpt>
      <trkpt lat="43.31115" lon="6.37575">
        <ele>177</ele>
        <time>2026-01-30T12:18:57Z</time>
      </trkpt>
      <trkpt lat="43.31131" lon="6.37574">
        <ele>175</ele>
        <time>2026-01-30T12:19:16Z</time>
      </trkpt>
      <trkpt lat="43.31148" lon="6.37579">
        <ele>173</ele>
        <time>2026-01-30T12:19:36Z</time>
      </trkpt>
      <trkpt lat="43.3117" lon="6.37605">
        <ele>168</ele>
        <time>2026-01-30T12:20:10Z</time>
      </trkpt>
      <trkpt lat="43.31176" lon="6.37608">
        <ele>167</ele>
        <time>2026-01-30T12:20:17Z</time>
      </trkpt>
      <trkpt lat="43.31176" lon="6.37608">
        <ele>167</ele>
        <time>2026-01-30T12:20:17Z</time>
      </trkpt>
      <trkpt lat="43.31179" lon="6.37609">
        <ele>168</ele>
        <time>2026-01-30T12:20:31Z</time>
      </trkpt>
      <trkpt lat="43.31198" lon="6.37605">
        <ele>167</ele>
        <time>2026-01-30T12:20:52Z</time>
      </trkpt>
      <trkpt lat="43.31273" lon="6.37637">
        <ele>156</ele>
        <time>2026-01-30T12:22:23Z</time>
      </trkpt>
      <trkpt lat="43.31273" lon="6.37638">
        <ele>155</ele>
        <time>2026-01-30T12:24:41Z</time>
      </trkpt>
      <trkpt lat="43.3129" lon="6.37656">
        <ele>152</ele>
        <time>2026-01-30T12:25:08Z</time>
      </trkpt>
      <trkpt lat="43.313" lon="6.37685">
        <ele>149</ele>
        <time>2026-01-30T12:25:37Z</time>
      </trkpt>
      <trkpt lat="43.31306" lon="6.37715">
        <ele>147</ele>
        <time>2026-01-30T12:25:58Z</time>
      </trkpt>
      <trkpt lat="43.31313" lon="6.37746">
        <ele>145</ele>
        <time>2026-01-30T12:26:22Z</time>
      </trkpt>
      <trkpt lat="43.31313" lon="6.37777">
        <ele>143</ele>
        <time>2026-01-30T12:26:50Z</time>
      </trkpt>
      <trkpt lat="43.31314" lon="6.37801">
        <ele>143</ele>
        <time>2026-01-30T12:27:15Z</time>
      </trkpt>
      <trkpt lat="43.31314" lon="6.37786">
        <ele>142</ele>
        <time>2026-01-30T12:28:51Z</time>
      </trkpt>
      <trkpt lat="43.31318" lon="6.37804">
        <ele>142</ele>
        <time>2026-01-30T12:31:20Z</time>
      </trkpt>
      <trkpt lat="43.31316" lon="6.37807">
        <ele>141</ele>
        <time>2026-01-30T12:31:24Z</time>
      </trkpt>
      <trkpt lat="43.31318" lon="6.37809">
        <ele>141</ele>
        <time>2026-01-30T12:31:26Z</time>
      </trkpt>
      <trkpt lat="43.31328" lon="6.37811">
        <ele>141</ele>
        <time>2026-01-30T12:31:38Z</time>
      </trkpt>
      <trkpt lat="43.31335" lon="6.37806">
        <ele>142</ele>
        <time>2026-01-30T12:31:57Z</time>
      </trkpt>
      <trkpt lat="43.31351" lon="6.37773">
        <ele>143</ele>
        <time>2026-01-30T12:32:40Z</time>
      </trkpt>
      <trkpt lat="43.31351" lon="6.37773">
        <ele>143</ele>
        <time>2026-01-30T12:32:40Z</time>
      </trkpt>
      <trkpt lat="43.31361" lon="6.37756">
        <ele>145</ele>
        <time>2026-01-30T12:33:19Z</time>
      </trkpt>
      <trkpt lat="43.31366" lon="6.3774">
        <ele>145</ele>
        <time>2026-01-30T12:33:33Z</time>
      </trkpt>
      <trkpt lat="43.31361" lon="6.37692">
        <ele>147</ele>
        <time>2026-01-30T12:34:34Z</time>
      </trkpt>
      <trkpt lat="43.31381" lon="6.37691">
        <ele>149</ele>
        <time>2026-01-30T12:35:18Z</time>
      </trkpt>
      <trkpt lat="43.31384" lon="6.37691">
        <ele>150</ele>
        <time>2026-01-30T12:35:31Z</time>
      </trkpt>
      <trkpt lat="43.31511" lon="6.37726">
        <ele>137</ele>
        <time>2026-01-30T12:38:00Z</time>
      </trkpt>
      <trkpt lat="43.31507" lon="6.37728">
        <ele>137</ele>
        <time>2026-01-30T12:38:05Z</time>
      </trkpt>
      <trkpt lat="43.31494" lon="6.37717">
        <ele>138</ele>
        <time>2026-01-30T12:38:33Z</time>
      </trkpt>
      <trkpt lat="43.31434" lon="6.37699">
        <ele>145</ele>
        <time>2026-01-30T12:40:55Z</time>
      </trkpt>
      <trkpt lat="43.31407" lon="6.37687">
        <ele>149</ele>
        <time>2026-01-30T12:42:08Z</time>
      </trkpt>
      <trkpt lat="43.31387" lon="6.3769">
        <ele>150</ele>
        <time>2026-01-30T12:42:42Z</time>
      </trkpt>
      <trkpt lat="43.31381" lon="6.37691">
        <ele>149</ele>
        <time>2026-01-30T12:42:49Z</time>
      </trkpt>
      <trkpt lat="43.3138" lon="6.37691">
        <ele>149</ele>
        <time>2026-01-30T12:42:51Z</time>
      </trkpt>
      <trkpt lat="43.3138" lon="6.37691">
        <ele>149</ele>
        <time>2026-01-30T12:42:51Z</time>
      </trkpt>
      <trkpt lat="43.31381" lon="6.37691">
        <ele>149</ele>
        <time>2026-01-30T12:42:53Z</time>
      </trkpt>
      <trkpt lat="43.31402" lon="6.37686">
        <ele>149</ele>
        <time>2026-01-30T12:43:17Z</time>
      </trkpt>
      <trkpt lat="43.31494" lon="6.37717">
        <ele>138</ele>
        <time>2026-01-30T12:45:05Z</time>
      </trkpt>
      <trkpt lat="43.31507" lon="6.37728">
        <ele>137</ele>
        <time>2026-01-30T12:45:23Z</time>
      </trkpt>
      <trkpt lat="43.31519" lon="6.37724">
        <ele>137</ele>
        <time>2026-01-30T12:45:36Z</time>
      </trkpt>
      <trkpt lat="43.31538" lon="6.37685">
        <ele>130</ele>
        <time>2026-01-30T12:46:16Z</time>
      </trkpt>
      <trkpt lat="43.31576" lon="6.37637">
        <ele>135</ele>
        <time>2026-01-30T12:48:06Z</time>
      </trkpt>
      <trkpt lat="43.31576" lon="6.37637">
        <ele>135</ele>
        <time>2026-01-30T12:48:06Z</time>
      </trkpt>
      <trkpt lat="43.31576" lon="6.37637">
        <ele>135</ele>
        <time>2026-01-30T12:48:07Z</time>
      </trkpt>
      <trkpt lat="43.31589" lon="6.37621">
        <ele>134</ele>
        <time>2026-01-30T12:48:27Z</time>
      </trkpt>
      <trkpt lat="43.31595" lon="6.37593">
        <ele>137</ele>
        <time>2026-01-30T12:49:22Z</time>
      </trkpt>
      <trkpt lat="43.31617" lon="6.37555">
        <ele>137</ele>
        <time>2026-01-30T12:50:02Z</time>
      </trkpt>
      <trkpt lat="43.31614" lon="6.37559">
        <ele>137</ele>
        <time>2026-01-30T12:50:07Z</time>
      </trkpt>
      <trkpt lat="43.31614" lon="6.37559">
        <ele>137</ele>
        <time>2026-01-30T12:50:07Z</time>
      </trkpt>
      <trkpt lat="43.31616" lon="6.37555">
        <ele>137</ele>
        <time>2026-01-30T12:50:12Z</time>
      </trkpt>
      <trkpt lat="43.31616" lon="6.37552">
        <ele>137</ele>
        <time>2026-01-30T12:50:15Z</time>
      </trkpt>
      <trkpt lat="43.31608" lon="6.37512">
        <ele>141</ele>
        <time>2026-01-30T12:51:30Z</time>
      </trkpt>
      <trkpt lat="43.31593" lon="6.37474">
        <ele>142</ele>
        <time>2026-01-30T12:52:16Z</time>
      </trkpt>
      <trkpt lat="43.31598" lon="6.37417">
        <ele>143</ele>
        <time>2026-01-30T12:53:14Z</time>
      </trkpt>
      <trkpt lat="43.31585" lon="6.37374">
        <ele>145</ele>
        <time>2026-01-30T12:54:14Z</time>
      </trkpt>
      <trkpt lat="43.3159" lon="6.37361">
        <ele>147</ele>
        <time>2026-01-30T12:54:46Z</time>
      </trkpt>
      <trkpt lat="43.31597" lon="6.37353">
        <ele>148</ele>
        <time>2026-01-30T12:55:07Z</time>
      </trkpt>
      <trkpt lat="43.31597" lon="6.37346">
        <ele>148</ele>
        <time>2026-01-30T12:55:13Z</time>
      </trkpt>
      <trkpt lat="43.31592" lon="6.37344">
        <ele>148</ele>
        <time>2026-01-30T12:55:19Z</time>
      </trkpt>
      <trkpt lat="43.31585" lon="6.3733">
        <ele>149</ele>
        <time>2026-01-30T12:55:43Z</time>
      </trkpt>
      <trkpt lat="43.31587" lon="6.37305">
        <ele>151</ele>
        <time>2026-01-30T12:56:25Z</time>
      </trkpt>
      <trkpt lat="43.31616" lon="6.37241">
        <ele>149</ele>
        <time>2026-01-30T12:57:27Z</time>
      </trkpt>
      <trkpt lat="43.31636" lon="6.37241">
        <ele>147</ele>
        <time>2026-01-30T12:57:50Z</time>
      </trkpt>
      <trkpt lat="43.31666" lon="6.37234">
        <ele>144</ele>
        <time>2026-01-30T12:58:24Z</time>
      </trkpt>
      <trkpt lat="43.31666" lon="6.37236">
        <ele>143</ele>
        <time>2026-01-30T13:00:26Z</time>
      </trkpt>
      <trkpt lat="43.31666" lon="6.37234">
        <ele>144</ele>
        <time>2026-01-30T13:00:38Z</time>
      </trkpt>
      <trkpt lat="43.31687" lon="6.37229">
        <ele>141</ele>
        <time>2026-01-30T13:01:02Z</time>
      </trkpt>
      <trkpt lat="43.31696" lon="6.37213">
        <ele>141</ele>
        <time>2026-01-30T13:01:19Z</time>
      </trkpt>
      <trkpt lat="43.317" lon="6.37222">
        <ele>140</ele>
        <time>2026-01-30T13:01:28Z</time>
      </trkpt>
      <trkpt lat="43.31709" lon="6.37228">
        <ele>139</ele>
        <time>2026-01-30T13:01:39Z</time>
      </trkpt>
      <trkpt lat="43.31727" lon="6.37224">
        <ele>136</ele>
        <time>2026-01-30T13:02:00Z</time>
      </trkpt>
      <trkpt lat="43.31751" lon="6.3723">
        <ele>133</ele>
        <time>2026-01-30T13:02:29Z</time>
      </trkpt>
      <trkpt lat="43.31761" lon="6.3722">
        <ele>133</ele>
        <time>2026-01-30T13:02:43Z</time>
      </trkpt>
      <trkpt lat="43.31768" lon="6.37217">
        <ele>132</ele>
        <time>2026-01-30T13:02:52Z</time>
      </trkpt>
      <trkpt lat="43.31807" lon="6.3716">
        <ele>130</ele>
        <time>2026-01-30T13:03:57Z</time>
      </trkpt>
      <trkpt lat="43.31872" lon="6.37178">
        <ele>129</ele>
        <time>2026-01-30T13:06:18Z</time>
      </trkpt>
      <trkpt lat="43.31919" lon="6.3715">
        <ele>126</ele>
        <time>2026-01-30T13:07:16Z</time>
      </trkpt>
      <trkpt lat="43.31941" lon="6.37059">
        <ele>127</ele>
        <time>2026-01-30T13:10:24Z</time>
      </trkpt>
      <trkpt lat="43.31967" lon="6.36935">
        <ele>125</ele>
        <time>2026-01-30T13:12:12Z</time>
      </trkpt>
    </trkseg>
  </trk>
</gpx>